createdAt,value
2019-03-31T00:00:01.467Z,7.83
2019-03-31T00:02:51.794Z,7.63
2019-03-31T00:05:37.306Z,7.81
2019-03-31T00:08:26.706Z,7.78
2019-03-31T00:11:16.985Z,7.80
2019-03-31T00:14:00.203Z,7.67
2019-03-31T00:16:52.435Z,7.81
2019-03-31T00:19:35.602Z,7.68
2019-03-31T00:22:26.795Z,7.58
2019-03-31T00:25:17.281Z,7.47
2019-03-31T00:28:07.739Z,7.55
2019-03-31T00:30:57.992Z,7.59
2019-03-31T00:33:48.260Z,7.42
2019-03-31T00:36:30.629Z,7.37
2019-03-31T00:39:20.877Z,7.41
2019-03-31T00:42:03.643Z,7.42
2019-03-31T00:44:53.989Z,7.34
2019-03-31T00:47:36.237Z,7.45
2019-03-31T00:50:45.395Z,7.39
2019-03-31T00:53:35.720Z,7.36
2019-03-31T00:56:26.366Z,7.35
2019-03-31T00:59:16.756Z,7.50
2019-03-31T01:04:54.587Z,7.16
2019-03-31T01:07:44.855Z,7.34
2019-03-31T01:10:28.907Z,7.34
2019-03-31T01:16:20.947Z,7.17
2019-03-31T01:22:26.073Z,7.02
2019-03-31T01:28:13.197Z,7.13
2019-03-31T01:34:06.569Z,7.05
2019-03-31T01:36:56.837Z,6.94
2019-03-31T01:39:39.231Z,6.81
2019-03-31T01:42:29.532Z,6.62
2019-03-31T01:45:11.971Z,6.68
2019-03-31T01:48:02.267Z,6.68
2019-03-31T01:50:45.131Z,6.72
2019-03-31T01:53:35.438Z,6.69
2019-03-31T01:59:26.219Z,6.40
2019-03-31T02:02:11.527Z,6.29
2019-03-31T02:05:01.907Z,6.26
2019-03-31T02:07:52.187Z,6.45
2019-03-31T02:10:42.543Z,6.35
2019-03-31T02:16:46.965Z,6.42
2019-03-31T02:19:37.225Z,6.54
2019-03-31T02:22:27.473Z,6.59
2019-03-31T02:28:31.038Z,6.48
2019-03-31T02:31:40.262Z,6.24
2019-03-31T02:34:30.648Z,6.30
2019-03-31T02:37:13.413Z,6.33
2019-03-31T02:40:03.762Z,6.20
2019-03-31T02:42:54.086Z,6.04
2019-03-31T02:46:03.176Z,5.96
2019-03-31T02:48:53.503Z,5.88
2019-03-31T02:51:43.824Z,6.00
2019-03-31T02:54:36.663Z,5.91
2019-03-31T02:57:27.047Z,5.78
2019-03-31T03:00:17.340Z,5.61
2019-03-31T03:06:21.784Z,5.78
2019-03-31T03:09:12.118Z,5.68
2019-03-31T03:12:13.549Z,5.71
2019-03-31T03:14:57.073Z,5.63
2019-03-31T03:17:47.320Z,5.75
2019-03-31T03:20:30.150Z,5.71
2019-03-31T03:23:20.413Z,5.71
2019-03-31T03:26:03.141Z,5.67
2019-03-31T03:28:53.415Z,5.72
2019-03-31T03:31:39.877Z,5.74
2019-03-31T03:34:30.191Z,5.74
2019-03-31T03:37:12.570Z,5.78
2019-03-31T03:40:02.847Z,5.95
2019-03-31T03:42:45.166Z,5.69
2019-03-31T03:45:35.502Z,5.71
2019-03-31T03:48:18.468Z,5.73
2019-03-31T03:51:08.745Z,5.70
2019-03-31T03:53:51.238Z,5.84
2019-03-31T03:56:41.462Z,5.81
2019-03-31T03:59:23.910Z,5.67
2019-03-31T04:02:14.177Z,5.78
2019-03-31T04:04:57.288Z,5.75
2019-03-31T04:07:47.543Z,5.51
2019-03-31T04:10:49.102Z,5.59
2019-03-31T04:13:38.912Z,5.49
2019-03-31T04:16:21.078Z,5.50
2019-03-31T04:19:04.193Z,5.44
2019-03-31T04:21:50.843Z,5.42
2019-03-31T04:24:34.203Z,5.38
2019-03-31T04:27:24.493Z,5.25
2019-03-31T04:30:14.841Z,5.32
2019-03-31T04:33:05.155Z,5.18
2019-03-31T04:35:55.451Z,5.44
2019-03-31T04:38:45.790Z,5.55
2019-03-31T04:42:07.019Z,5.52
2019-03-31T04:44:51.157Z,5.31
2019-03-31T04:47:41.432Z,5.25
2019-03-31T04:50:31.680Z,5.21
2019-03-31T04:53:22.006Z,5.02
2019-03-31T04:56:04.699Z,5.04
2019-03-31T04:58:54.973Z,5.14
2019-03-31T05:01:37.590Z,4.92
2019-03-31T05:04:27.832Z,4.74
2019-03-31T05:07:11.020Z,4.61
2019-03-31T05:10:01.284Z,4.42
2019-03-31T05:12:44.727Z,4.60
2019-03-31T05:15:34.971Z,4.47
2019-03-31T05:18:17.817Z,4.84
2019-03-31T05:21:08.059Z,4.87
2019-03-31T05:23:54.463Z,4.81
2019-03-31T05:26:44.760Z,4.94
2019-03-31T05:29:27.269Z,5.06
2019-03-31T05:32:17.549Z,5.10
2019-03-31T05:35:00.513Z,5.32
2019-03-31T05:37:51.586Z,5.47
2019-03-31T05:40:35.050Z,5.42
2019-03-31T05:43:25.379Z,5.52
2019-03-31T05:46:08.346Z,5.53
2019-03-31T05:48:58.654Z,5.60
2019-03-31T05:51:49.073Z,5.58
2019-03-31T05:54:39.415Z,5.52
2019-03-31T05:57:30.551Z,5.54
2019-03-31T06:04:10.772Z,5.73
2019-03-31T06:06:53.538Z,5.80
2019-03-31T06:09:43.888Z,5.94
2019-03-31T06:12:34.188Z,6.02
2019-03-31T06:15:24.456Z,6.08
2019-03-31T06:18:07.176Z,6.26
2019-03-31T06:20:57.504Z,6.33
2019-03-31T06:23:47.957Z,6.24
2019-03-31T06:29:32.315Z,6.34
2019-03-31T06:32:22.708Z,6.47
2019-03-31T06:35:13.001Z,6.40
2019-03-31T06:38:03.322Z,6.64
2019-03-31T06:43:50.654Z,9.85
2019-03-31T06:46:40.938Z,11.92
2019-03-31T06:49:23.872Z,12.86
2019-03-31T06:52:14.132Z,13.54
2019-03-31T06:54:57.102Z,13.90
2019-03-31T06:57:47.390Z,14.84
2019-03-31T07:00:38.222Z,16.48
2019-03-31T07:03:21.874Z,17.27
2019-03-31T07:06:12.703Z,18.10
2019-03-31T07:08:55.996Z,18.29
2019-03-31T07:12:05.724Z,18.01
2019-03-31T07:14:49.294Z,17.83
2019-03-31T07:17:39.588Z,17.56
2019-03-31T07:20:22.271Z,17.41
2019-03-31T07:26:13.902Z,15.99
2019-03-31T07:29:04.186Z,15.74
2019-03-31T07:31:46.536Z,15.88
2019-03-31T07:34:36.822Z,16.27
2019-03-31T07:37:19.416Z,15.44
2019-03-31T07:40:41.860Z,15.98
2019-03-31T07:43:24.687Z,15.82
2019-03-31T07:46:14.936Z,15.75
2019-03-31T07:52:20.620Z,15.61
2019-03-31T07:58:23.904Z,14.95
2019-03-31T08:01:14.293Z,15.31
2019-03-31T08:04:04.599Z,15.13
2019-03-31T08:06:54.905Z,14.88
2019-03-31T08:09:45.244Z,15.31
2019-03-31T08:12:35.568Z,15.32
2019-03-31T08:15:25.910Z,16.16
2019-03-31T08:18:16.226Z,16.57
2019-03-31T08:21:06.472Z,17.12
2019-03-31T08:23:49.021Z,16.53
2019-03-31T08:26:39.438Z,15.47
2019-03-31T08:29:29.775Z,16.03
2019-03-31T08:32:20.133Z,15.87
2019-03-31T08:38:45.523Z,16.62
2019-03-31T08:41:35.791Z,15.28
2019-03-31T08:44:18.615Z,14.35
2019-03-31T08:50:12.690Z,13.63
2019-03-31T08:53:02.970Z,13.06
2019-03-31T08:55:45.619Z,12.73
2019-03-31T08:58:35.917Z,12.12
2019-03-31T09:01:18.719Z,11.67
2019-03-31T09:04:08.996Z,11.67
2019-03-31T09:06:55.553Z,11.81
2019-03-31T09:09:45.842Z,11.57
2019-03-31T09:12:28.395Z,12.28
2019-03-31T09:15:18.680Z,12.89
2019-03-31T09:18:01.215Z,13.39
2019-03-31T09:20:51.543Z,14.13
2019-03-31T09:23:34.624Z,13.97
2019-03-31T09:29:28.284Z,13.65
2019-03-31T09:32:18.581Z,13.38
2019-03-31T09:35:01.324Z,13.44
2019-03-31T09:37:51.621Z,13.76
2019-03-31T09:40:34.337Z,13.95
2019-03-31T09:43:24.635Z,14.02
2019-03-31T09:46:07.941Z,13.83
2019-03-31T09:48:58.250Z,13.58
2019-03-31T09:51:41.037Z,13.58
2019-03-31T09:54:31.314Z,13.71
2019-03-31T10:00:10.046Z,13.44
2019-03-31T10:03:01.200Z,13.65
2019-03-31T10:05:47.676Z,13.74
2019-03-31T10:08:36.696Z,13.73
2019-03-31T10:11:27.092Z,13.53
2019-03-31T10:14:17.397Z,13.66
2019-03-31T10:16:48.866Z,13.64
2019-03-31T10:19:39.144Z,13.72
2019-03-31T10:22:21.933Z,14.08
2019-03-31T10:28:25.522Z,14.19
2019-03-31T10:33:57.216Z,14.56
2019-03-31T10:36:47.514Z,14.76
2019-03-31T10:39:30.364Z,15.11
2019-03-31T10:45:22.826Z,14.59
2019-03-31T10:48:20.266Z,14.76
2019-03-31T10:50:57.791Z,14.98
2019-03-31T10:53:48.536Z,15.36
2019-03-31T10:56:31.636Z,15.48
2019-03-31T10:59:21.912Z,15.39
2019-03-31T11:02:04.361Z,15.29
2019-03-31T11:04:54.617Z,15.45
2019-03-31T11:07:36.882Z,15.84
2019-03-31T11:10:27.149Z,15.94
2019-03-31T11:13:10.356Z,16.12
2019-03-31T11:16:00.628Z,15.94
2019-03-31T11:18:43.888Z,15.91
2019-03-31T11:22:11.819Z,16.11
2019-03-31T11:24:54.964Z,16.27
2019-03-31T11:27:45.314Z,16.52
2019-03-31T11:30:28.242Z,16.57
2019-03-31T11:33:18.482Z,16.61
2019-03-31T11:36:01.318Z,16.90
2019-03-31T11:38:51.590Z,16.69
2019-03-31T11:41:34.022Z,16.69
2019-03-31T11:44:27.495Z,16.63
2019-03-31T11:47:09.067Z,16.78
2019-03-31T11:49:59.324Z,16.54
2019-03-31T11:52:41.966Z,16.67
2019-03-31T11:58:33.779Z,16.71
2019-03-31T12:01:23.180Z,16.61
2019-03-31T12:04:04.980Z,16.95
2019-03-31T12:06:47.904Z,16.89
2019-03-31T12:09:38.402Z,16.91
2019-03-31T12:12:28.800Z,16.83
2019-03-31T12:18:14.240Z,16.95
2019-03-31T12:21:04.508Z,17.18
2019-03-31T12:23:47.554Z,17.25
2019-03-31T12:26:37.890Z,17.02
2019-03-31T12:29:20.800Z,17.17
2019-03-31T12:32:11.274Z,17.42
2019-03-31T12:34:53.624Z,17.41
2019-03-31T12:38:02.672Z,17.46
2019-03-31T12:40:45.747Z,17.81
2019-03-31T12:43:36.017Z,17.61
2019-03-31T12:46:18.460Z,17.85
2019-03-31T12:49:08.764Z,17.56
2019-03-31T12:51:51.392Z,17.84
2019-03-31T12:54:41.698Z,17.80
2019-03-31T12:57:25.049Z,18.15
2019-03-31T13:00:15.343Z,18.03
2019-03-31T13:02:59.020Z,17.81
2019-03-31T13:05:49.254Z,17.78
2019-03-31T13:08:31.932Z,17.88
2019-03-31T13:11:22.802Z,17.81
2019-03-31T13:14:06.309Z,18.07
2019-03-31T13:16:57.147Z,18.18
2019-03-31T13:19:40.803Z,18.26
2019-03-31T13:22:31.636Z,18.29
2019-03-31T13:25:16.143Z,18.34
2019-03-31T13:28:07.007Z,18.48
2019-03-31T13:30:50.621Z,18.39
2019-03-31T13:33:41.561Z,18.25
2019-03-31T13:36:25.073Z,18.43
2019-03-31T13:39:16.161Z,18.39
2019-03-31T13:42:07.083Z,18.43
2019-03-31T13:44:58.044Z,18.53
2019-03-31T13:47:49.003Z,18.32
2019-03-31T13:50:39.939Z,18.32
2019-03-31T13:53:30.890Z,18.40
2019-03-31T13:56:21.752Z,18.53
2019-03-31T13:59:08.901Z,18.74
2019-03-31T14:02:00.221Z,18.76
2019-03-31T14:04:51.491Z,18.77
2019-03-31T14:07:17.526Z,18.82
2019-03-31T14:10:08.658Z,18.65
2019-03-31T14:12:59.575Z,18.70
2019-03-31T14:15:50.508Z,18.83
2019-03-31T14:18:41.469Z,18.72
2019-03-31T14:21:32.301Z,18.51
2019-03-31T14:24:15.414Z,18.57
2019-03-31T14:26:47.971Z,18.56
2019-03-31T14:29:32.391Z,18.73
2019-03-31T14:32:23.295Z,18.74
2019-03-31T14:35:06.784Z,18.81
2019-03-31T14:37:59.482Z,18.81
2019-03-31T14:40:50.412Z,18.69
2019-03-31T14:43:41.291Z,18.53
2019-03-31T14:46:32.208Z,18.42
2019-03-31T14:49:25.764Z,18.33
2019-03-31T14:52:08.190Z,18.33
2019-03-31T14:54:59.041Z,18.50
2019-03-31T14:57:43.141Z,18.61
2019-03-31T15:00:34.079Z,18.70
2019-03-31T15:03:25.002Z,18.93
2019-03-31T15:06:15.895Z,19.04
2019-03-31T15:09:08.820Z,18.97
2019-03-31T15:11:59.951Z,18.87
2019-03-31T15:14:43.985Z,18.71
2019-03-31T15:40:29.847Z,18.58
2019-03-31T15:46:27.747Z,18.48
2019-03-31T15:52:08.798Z,18.49
2019-03-31T15:54:59.358Z,18.56
2019-03-31T15:57:43.031Z,18.44
2019-03-31T16:00:33.915Z,18.41
2019-03-31T16:03:17.600Z,18.46
2019-03-31T16:06:08.507Z,18.42
2019-03-31T16:08:51.541Z,18.31
2019-03-31T16:14:42.969Z,18.24
2019-03-31T16:17:33.281Z,18.18
2019-03-31T16:20:15.417Z,18.06
2019-03-31T16:23:05.725Z,18.12
2019-03-31T16:29:01.777Z,18.09
2019-03-31T16:31:43.871Z,17.99
2019-03-31T16:37:15.145Z,17.81
2019-03-31T16:40:05.057Z,17.78
2019-03-31T16:42:47.106Z,17.67
2019-03-31T16:48:25.060Z,17.62
2019-03-31T16:51:14.911Z,17.58
2019-03-31T16:57:07.969Z,17.40
2019-03-31T16:59:50.239Z,17.23
2019-03-31T17:02:40.068Z,17.25
2019-03-31T17:05:22.282Z,17.05
2019-03-31T17:08:01.745Z,17.10
2019-03-31T17:10:51.481Z,16.98
2019-03-31T17:13:33.730Z,16.91
2019-03-31T17:16:23.447Z,16.81
2019-03-31T17:19:05.630Z,16.78
2019-03-31T17:21:55.429Z,16.70
2019-03-31T17:24:37.378Z,16.53
2019-03-31T17:27:27.267Z,16.58
2019-03-31T17:30:09.636Z,16.45
2019-03-31T17:32:59.348Z,16.32
2019-03-31T17:35:42.343Z,16.23
2019-03-31T17:38:32.095Z,16.19
2019-03-31T17:41:14.410Z,16.11
2019-03-31T17:44:04.142Z,16.05
2019-03-31T17:46:46.694Z,16.06
2019-03-31T17:49:36.428Z,16.02
2019-03-31T17:52:19.262Z,15.97
2019-03-31T17:55:08.996Z,16.00
2019-03-31T17:57:51.736Z,15.85
2019-03-31T18:00:41.569Z,15.82
2019-03-31T18:03:27.872Z,15.75
2019-03-31T18:06:17.702Z,15.62
2019-03-31T18:09:01.340Z,15.42
2019-03-31T18:11:51.084Z,15.53
2019-03-31T18:14:33.100Z,15.42
2019-03-31T18:17:22.892Z,15.32
2019-03-31T18:20:08.832Z,15.22
2019-03-31T18:22:58.663Z,15.13
2019-03-31T18:25:48.378Z,15.08
2019-03-31T18:28:30.658Z,14.92
2019-03-31T18:31:20.372Z,14.84
2019-03-31T18:34:02.806Z,14.72
2019-03-31T18:36:52.498Z,14.65
2019-03-31T18:39:34.627Z,14.48
2019-03-31T18:42:24.382Z,14.35
2019-03-31T18:45:33.292Z,14.22
2019-03-31T18:48:23.054Z,14.22
2019-03-31T18:51:12.748Z,14.20
2019-03-31T18:57:24.982Z,14.15
2019-03-31T19:00:33.648Z,14.00
2019-03-31T19:03:39.226Z,13.90
2019-03-31T19:06:33.747Z,13.74
2019-03-31T19:09:42.380Z,13.74
2019-03-31T19:12:52.013Z,13.76
2019-03-31T19:16:00.642Z,13.62
2019-03-31T19:19:09.284Z,13.66
2019-03-31T19:22:08.455Z,13.59
2019-03-31T19:25:17.065Z,13.52
2019-03-31T19:31:08.951Z,13.37
2019-03-31T19:34:10.180Z,13.22
2019-03-31T19:37:18.769Z,13.36
2019-03-31T19:40:27.554Z,13.31
2019-03-31T19:43:36.193Z,13.18
2019-03-31T19:46:44.960Z,13.08
2019-03-31T19:50:05.359Z,13.07
2019-03-31T19:52:58.695Z,13.02
2019-03-31T19:56:08.099Z,12.95
2019-03-31T19:59:10.747Z,12.98
2019-03-31T20:02:19.293Z,12.95
2019-03-31T20:08:32.759Z,12.94
2019-03-31T20:11:34.481Z,12.95
2019-03-31T20:14:29.845Z,13.02
2019-03-31T20:17:34.869Z,12.98
2019-03-31T20:20:43.554Z,12.90
2019-03-31T20:23:52.265Z,12.85
2019-03-31T20:27:00.859Z,12.73
2019-03-31T20:29:57.949Z,12.61
2019-03-31T20:33:01.327Z,12.50
2019-03-31T20:36:05.243Z,12.37
2019-03-31T20:39:14.202Z,12.43
2019-03-31T20:42:03.663Z,12.31
2019-03-31T20:44:45.695Z,12.23
2019-03-31T20:47:35.443Z,12.28
2019-03-31T20:50:19.131Z,12.28
2019-03-31T20:53:08.854Z,12.28
2019-03-31T20:55:51.461Z,12.27
2019-03-31T20:58:41.187Z,12.24
2019-03-31T21:01:23.205Z,12.10
2019-03-31T21:04:12.894Z,12.10
2019-03-31T21:06:55.047Z,12.03
2019-03-31T21:09:45.508Z,12.03
2019-03-31T21:12:29.245Z,12.04
2019-03-31T21:15:18.975Z,11.80
2019-03-31T21:18:01.643Z,11.92
2019-03-31T21:20:51.345Z,11.94
2019-03-31T21:23:34.173Z,11.81
2019-03-31T21:26:23.907Z,11.87
2019-03-31T21:29:06.235Z,11.67
2019-03-31T21:31:55.982Z,11.70
2019-03-31T21:34:45.719Z,11.70
2019-03-31T21:37:27.627Z,11.65
2019-03-31T21:40:17.499Z,11.54
2019-03-31T21:43:18.236Z,11.48
2019-03-31T21:46:00.803Z,11.51
2019-03-31T21:48:50.564Z,11.35
2019-03-31T21:51:32.673Z,11.25
2019-03-31T21:54:22.487Z,11.13
2019-03-31T21:57:12.299Z,11.05
2019-03-31T22:00:02.095Z,11.10
2019-03-31T22:02:52.026Z,11.04
2019-03-31T22:05:41.773Z,11.03
2019-03-31T22:08:31.572Z,11.23
2019-03-31T22:11:21.268Z,11.26
2019-03-31T22:17:26.127Z,11.12
2019-03-31T22:20:08.658Z,10.94
2019-03-31T22:23:10.076Z,11.00
2019-03-31T22:25:52.273Z,10.98
2019-03-31T22:28:42.319Z,11.10
2019-03-31T22:31:24.432Z,10.98
2019-03-31T22:34:14.236Z,10.98
2019-03-31T22:36:45.023Z,11.01
2019-03-31T22:42:23.336Z,11.08
2019-03-31T22:45:06.372Z,10.94
2019-03-31T22:47:56.268Z,10.97
2019-03-31T22:50:46.010Z,10.87
2019-03-31T22:53:35.912Z,10.71
2019-03-31T22:56:25.688Z,10.81
2019-03-31T22:59:15.466Z,10.63
2019-03-31T23:04:58.553Z,10.38
2019-03-31T23:07:48.240Z,10.28
2019-03-31T23:10:37.948Z,10.20
2019-03-31T23:13:27.658Z,10.16
2019-03-31T23:16:13.856Z,10.15
2019-03-31T23:19:03.562Z,10.09
2019-03-31T23:21:50.429Z,10.09
2019-03-31T23:24:40.100Z,10.16
2019-03-31T23:27:22.245Z,10.19
2019-03-31T23:30:12.159Z,10.33
2019-03-31T23:32:56.456Z,10.17
2019-03-31T23:35:47.194Z,10.06
2019-03-31T23:38:29.515Z,9.88
2019-03-31T23:41:19.237Z,9.85
2019-03-31T23:44:02.066Z,9.70
2019-03-31T23:46:51.797Z,9.59
2019-03-31T23:49:33.981Z,9.67
2019-03-31T23:55:18.187Z,9.71
2019-03-31T23:58:07.993Z,9.73
